createdAt,value
2018-04-23T00:00:08.759Z,15.70
2018-04-23T00:02:36.285Z,15.70
2018-04-23T00:05:04.588Z,15.70
2018-04-23T00:07:32.163Z,15.70
2018-04-23T00:09:59.699Z,15.60
2018-04-23T00:12:27.264Z,15.60
2018-04-23T00:14:54.804Z,15.70
2018-04-23T00:17:23.135Z,15.60
2018-04-23T00:19:50.686Z,15.60
2018-04-23T00:22:18.235Z,15.70
2018-04-23T00:24:45.762Z,15.60
2018-04-23T00:27:14.090Z,15.60
2018-04-23T00:29:41.618Z,15.60
2018-04-23T00:32:09.148Z,15.60
2018-04-23T00:34:37.445Z,15.60
2018-04-23T00:37:04.979Z,15.50
2018-04-23T00:39:32.562Z,15.50
2018-04-23T00:42:00.104Z,15.50
2018-04-23T00:44:27.676Z,15.50
2018-04-23T00:46:55.953Z,15.50
2018-04-23T00:49:23.514Z,15.50
2018-04-23T00:51:51.027Z,15.50
2018-04-23T00:54:18.568Z,15.50
2018-04-23T00:56:46.118Z,15.50
2018-04-23T00:59:13.668Z,15.40
2018-04-23T01:01:41.188Z,15.40
2018-04-23T01:04:09.495Z,15.40
2018-04-23T01:06:37.045Z,15.30
2018-04-23T01:09:04.569Z,15.40
2018-04-23T01:11:32.079Z,15.30
2018-04-23T01:13:59.589Z,15.30
2018-04-23T01:16:27.123Z,15.40
2018-04-23T01:18:54.651Z,15.30
2018-04-23T01:21:22.199Z,15.30
2018-04-23T01:23:49.753Z,15.30
2018-04-23T01:26:17.288Z,15.30
2018-04-23T01:28:45.596Z,15.30
2018-04-23T01:31:13.170Z,15.30
2018-04-23T01:33:40.682Z,15.30
2018-04-23T01:36:08.242Z,15.30
2018-04-23T01:38:35.758Z,15.30
2018-04-23T01:41:03.282Z,15.30
2018-04-23T01:43:30.803Z,15.30
2018-04-23T01:45:58.335Z,15.30
2018-04-23T01:48:25.879Z,15.30
2018-04-23T01:50:53.455Z,15.30
2018-04-23T01:53:21.022Z,15.30
2018-04-23T01:55:48.548Z,15.30
2018-04-23T01:58:16.069Z,15.30
2018-04-23T02:00:44.400Z,15.20
2018-04-23T02:03:11.972Z,15.20
2018-04-23T02:05:39.501Z,15.20
2018-04-23T02:08:07.030Z,15.20
2018-04-23T02:10:34.573Z,15.10
2018-04-23T02:13:03.270Z,15.20
2018-04-23T02:15:31.580Z,15.10
2018-04-23T02:17:59.116Z,15.10
2018-04-23T02:20:26.656Z,15.10
2018-04-23T02:22:54.173Z,15.10
2018-04-23T02:25:21.702Z,15.00
2018-04-23T02:27:49.253Z,15.00
2018-04-23T02:30:16.791Z,15.00
2018-04-23T02:32:44.315Z,15.00
2018-04-23T02:35:11.871Z,14.90
2018-04-23T02:37:39.402Z,14.90
2018-04-23T02:40:06.937Z,14.90
2018-04-23T02:42:35.225Z,14.90
2018-04-23T02:45:02.812Z,14.80
2018-04-23T02:47:30.341Z,14.90
2018-04-23T02:49:57.865Z,14.80
2018-04-23T02:52:25.406Z,14.90
2018-04-23T02:54:52.986Z,14.80
2018-04-23T02:57:20.544Z,14.80
2018-04-23T02:59:48.084Z,14.80
2018-04-23T03:02:15.609Z,14.70
2018-04-23T03:04:43.126Z,14.80
2018-04-23T03:07:10.658Z,14.70
2018-04-23T03:09:38.195Z,14.70
2018-04-23T03:12:05.750Z,14.70
2018-04-23T03:14:33.287Z,14.70
2018-04-23T03:17:00.809Z,14.60
2018-04-23T03:19:28.341Z,14.60
2018-04-23T03:21:55.880Z,14.60
2018-04-23T03:24:23.504Z,14.60
2018-04-23T03:26:51.146Z,14.50
2018-04-23T03:29:18.697Z,14.50
2018-04-23T03:31:46.232Z,14.50
2018-04-23T03:34:13.796Z,14.50
2018-04-23T03:36:41.370Z,14.50
2018-04-23T03:39:08.903Z,14.50
2018-04-23T03:41:36.428Z,14.40
2018-04-23T03:44:04.726Z,14.40
2018-04-23T03:46:32.258Z,14.40
2018-04-23T03:48:59.795Z,14.40
2018-04-23T03:51:27.346Z,14.30
2018-04-23T03:53:54.916Z,14.30
2018-04-23T03:56:22.444Z,14.20
2018-04-23T03:58:49.972Z,14.30
2018-04-23T04:01:17.521Z,14.20
2018-04-23T04:03:45.061Z,14.20
2018-04-23T04:06:12.612Z,14.20
2018-04-23T04:08:40.165Z,14.10
2018-04-23T04:11:08.514Z,14.10
2018-04-23T04:13:48.026Z,14.10
2018-04-23T04:16:27.266Z,14.10
2018-04-23T04:18:54.794Z,14.00
2018-04-23T04:21:22.325Z,14.10
2018-04-23T04:23:49.866Z,14.00
2018-04-23T04:26:18.190Z,14.00
2018-04-23T04:28:45.726Z,13.90
2018-04-23T04:31:13.246Z,13.90
2018-04-23T04:33:40.766Z,13.90
2018-04-23T04:36:08.290Z,13.90
2018-04-23T04:38:35.830Z,13.90
2018-04-23T04:41:03.356Z,13.90
2018-04-23T04:43:30.876Z,13.90
2018-04-23T04:45:58.434Z,13.80
2018-04-23T04:48:25.960Z,13.90
2018-04-23T04:50:53.481Z,13.80
2018-04-23T04:53:21.034Z,13.80
2018-04-23T04:55:48.582Z,13.80
2018-04-23T04:58:16.126Z,13.80
2018-04-23T05:00:43.658Z,13.80
2018-04-23T05:03:11.197Z,13.70
2018-04-23T05:05:38.714Z,13.70
2018-04-23T05:08:06.294Z,13.70
2018-04-23T05:10:33.841Z,13.70
2018-04-23T05:13:01.458Z,13.70
2018-04-23T05:15:29.042Z,13.70
2018-04-23T05:17:56.578Z,13.70
2018-04-23T05:20:24.125Z,13.70
2018-04-23T05:22:51.665Z,13.70
2018-04-23T05:25:19.239Z,13.60
2018-04-23T05:27:46.761Z,13.60
2018-04-23T05:30:15.053Z,13.70
2018-04-23T05:32:42.596Z,13.60
2018-04-23T05:35:10.152Z,13.60
2018-04-23T05:37:37.746Z,13.60
2018-04-23T05:40:05.284Z,13.60
2018-04-23T05:42:32.795Z,13.70
2018-04-23T05:45:00.318Z,13.70
2018-04-23T05:47:27.946Z,13.70
2018-04-23T05:49:55.480Z,13.70
2018-04-23T05:52:23.039Z,13.70
2018-04-23T05:54:50.610Z,13.70
2018-04-23T05:57:18.943Z,13.80
2018-04-23T05:59:46.489Z,13.70
2018-04-23T06:02:14.033Z,13.80
2018-04-23T06:04:41.565Z,13.80
2018-04-23T06:07:09.090Z,13.80
2018-04-23T06:09:36.624Z,13.80
2018-04-23T06:12:04.150Z,13.80
2018-04-23T06:14:32.471Z,13.90
2018-04-23T06:17:00.008Z,13.90
2018-04-23T06:19:27.541Z,13.90
2018-04-23T06:21:55.841Z,13.80
2018-04-23T06:24:23.364Z,13.80
2018-04-23T06:26:50.905Z,13.80
2018-04-23T06:29:18.558Z,13.80
2018-04-23T06:31:46.088Z,13.80
2018-04-23T06:34:13.622Z,13.90
2018-04-23T06:36:41.904Z,13.80
2018-04-23T06:39:09.440Z,13.80
2018-04-23T06:41:37.731Z,13.80
2018-04-23T06:44:06.077Z,13.80
2018-04-23T06:46:33.604Z,13.80
2018-04-23T06:49:01.127Z,13.80
2018-04-23T06:51:28.648Z,13.80
2018-04-23T06:53:56.181Z,13.70
2018-04-23T06:56:23.698Z,13.70
2018-04-23T06:58:51.268Z,13.70
2018-04-23T07:01:18.824Z,13.80
2018-04-23T07:03:47.157Z,13.70
2018-04-23T07:06:15.437Z,13.70
2018-04-23T07:08:42.973Z,13.70
2018-04-23T07:11:10.499Z,13.70
2018-04-23T07:13:38.018Z,13.70
2018-04-23T07:16:05.539Z,13.70
2018-04-23T07:18:33.079Z,13.70
2018-04-23T07:21:00.604Z,13.70
2018-04-23T07:23:28.931Z,13.70
2018-04-23T07:25:56.460Z,13.70
2018-04-23T07:28:23.991Z,13.60
2018-04-23T07:30:51.522Z,13.60
2018-04-23T07:33:19.047Z,13.60
2018-04-23T07:35:46.795Z,13.50
2018-04-23T07:38:15.245Z,13.60
2018-04-23T07:40:42.797Z,13.50
2018-04-23T07:43:10.347Z,13.60
2018-04-23T07:45:37.873Z,13.60
2018-04-23T07:48:05.382Z,13.60
2018-04-23T07:50:32.946Z,13.60
2018-04-23T07:53:00.482Z,13.60
2018-04-23T07:55:28.020Z,13.60
2018-04-23T07:57:55.566Z,13.60
2018-04-23T08:00:23.099Z,13.70
2018-04-23T08:02:50.652Z,13.70
2018-04-23T08:05:18.945Z,13.90
2018-04-23T08:07:47.239Z,13.80
2018-04-23T08:10:14.769Z,13.80
2018-04-23T08:12:42.312Z,13.90
2018-04-23T08:15:09.854Z,13.90
2018-04-23T08:17:37.407Z,14.00
2018-04-23T08:20:04.961Z,14.00
2018-04-23T08:22:32.490Z,14.10
2018-04-23T08:25:00.045Z,14.20
2018-04-23T08:27:27.590Z,14.40
2018-04-23T08:29:55.109Z,14.30
2018-04-23T08:32:22.640Z,14.30
2018-04-23T08:34:50.183Z,14.30
2018-04-23T08:37:17.716Z,14.20
2018-04-23T08:39:45.996Z,14.00
2018-04-23T08:42:14.281Z,13.90
2018-04-23T08:44:41.869Z,13.90
2018-04-23T08:47:09.404Z,13.80
2018-04-23T08:49:36.980Z,13.80
2018-04-23T08:52:04.495Z,13.80
2018-04-23T08:54:32.821Z,13.90
2018-04-23T08:57:00.344Z,13.90
2018-04-23T08:59:28.627Z,14.00
2018-04-23T09:01:56.260Z,14.00
2018-04-23T09:04:23.868Z,14.00
2018-04-23T09:06:51.432Z,14.10
2018-04-23T09:09:18.986Z,14.10
2018-04-23T09:11:46.556Z,14.20
2018-04-23T09:14:14.054Z,14.20
2018-04-23T09:16:41.576Z,14.20
2018-04-23T09:19:09.106Z,14.30
2018-04-23T09:21:36.684Z,14.30
2018-04-23T09:24:04.271Z,14.40
2018-04-23T09:26:31.796Z,14.40
2018-04-23T09:28:59.339Z,14.50
2018-04-23T09:31:26.886Z,14.50
2018-04-23T09:33:55.197Z,14.70
2018-04-23T09:36:22.756Z,14.70
2018-04-23T09:38:50.293Z,14.80
2018-04-23T09:41:17.823Z,14.80
2018-04-23T09:43:45.350Z,14.90
2018-04-23T09:46:12.893Z,15.10
2018-04-23T09:48:40.448Z,15.20
2018-04-23T09:51:07.995Z,15.10
2018-04-23T09:53:35.600Z,15.00
2018-04-23T09:56:03.172Z,14.90
2018-04-23T09:58:30.723Z,15.00
2018-04-23T10:00:58.260Z,15.00
2018-04-23T10:03:25.810Z,15.00
2018-04-23T10:05:53.337Z,15.00
2018-04-23T10:08:20.864Z,15.00
2018-04-23T10:10:48.430Z,15.20
2018-04-23T10:13:16.715Z,15.10
2018-04-23T10:15:44.995Z,15.20
2018-04-23T10:18:13.287Z,15.30
2018-04-23T10:20:40.819Z,15.30
2018-04-23T10:23:08.349Z,15.30
2018-04-23T10:25:35.881Z,15.30
2018-04-23T10:28:03.410Z,15.30
2018-04-23T10:30:30.932Z,15.30
2018-04-23T10:32:58.468Z,15.20
2018-04-23T10:35:26.058Z,15.20
2018-04-23T10:37:53.658Z,15.20
2018-04-23T10:40:21.166Z,15.20
2018-04-23T10:42:48.704Z,15.30
2018-04-23T10:45:16.226Z,15.50
2018-04-23T10:47:43.746Z,15.70
2018-04-23T10:50:11.370Z,15.80
2018-04-23T10:52:38.900Z,15.70
2018-04-23T10:55:07.186Z,15.60
2018-04-23T10:57:34.703Z,15.60
2018-04-23T11:00:02.228Z,15.70
2018-04-23T11:02:29.747Z,15.60
2018-04-23T11:04:57.290Z,15.60
2018-04-23T11:07:25.585Z,15.70
2018-04-23T11:09:53.126Z,15.70
2018-04-23T11:12:20.688Z,15.80
2018-04-23T11:14:49.014Z,15.90
2018-04-23T11:17:16.535Z,15.90
2018-04-23T11:19:44.065Z,16.00
2018-04-23T11:22:11.582Z,16.00
2018-04-23T11:24:39.124Z,16.00
2018-04-23T11:27:06.647Z,16.00
2018-04-23T11:29:34.174Z,16.10
2018-04-23T11:32:01.697Z,16.10
2018-04-23T11:34:29.240Z,16.20
2018-04-23T11:36:57.523Z,16.40
2018-04-23T11:39:25.050Z,16.40
2018-04-23T11:41:52.569Z,16.40
2018-04-23T11:44:20.113Z,16.60
2018-04-23T11:46:47.654Z,16.80
2018-04-23T11:49:15.223Z,16.80
2018-04-23T11:51:42.762Z,16.90
2018-04-23T11:54:10.301Z,16.80
2018-04-23T11:56:37.866Z,16.70
2018-04-23T11:59:05.415Z,16.70
2018-04-23T12:01:32.948Z,16.70
2018-04-23T12:04:00.475Z,16.80
2018-04-23T12:06:28.047Z,16.90
2018-04-23T12:08:55.598Z,17.00
2018-04-23T12:11:23.151Z,16.90
2018-04-23T12:13:50.694Z,16.90
2018-04-23T12:16:19.002Z,17.00
2018-04-23T12:18:46.539Z,17.00
2018-04-23T12:21:14.073Z,17.00
2018-04-23T12:23:41.626Z,17.00
2018-04-23T12:26:09.187Z,17.20
2018-04-23T12:28:36.708Z,17.30
2018-04-23T12:31:04.241Z,17.20
2018-04-23T12:33:31.781Z,17.10
2018-04-23T12:35:59.305Z,17.10
2018-04-23T12:38:26.834Z,17.20
2018-04-23T12:40:54.354Z,17.40
2018-04-23T12:43:21.875Z,17.30
2018-04-23T12:45:49.415Z,17.40
2018-04-23T12:48:16.955Z,17.30
2018-04-23T12:50:44.493Z,17.20
2018-04-23T12:53:12.810Z,17.20
2018-04-23T12:55:40.377Z,17.10
2018-04-23T12:58:07.900Z,17.00
2018-04-23T13:00:35.440Z,17.10
2018-04-23T13:03:03.010Z,17.20
2018-04-23T13:05:31.305Z,17.20
2018-04-23T13:07:58.864Z,17.20
2018-04-23T13:10:26.422Z,17.00
2018-04-23T13:12:53.939Z,16.80
2018-04-23T13:15:21.498Z,16.70
2018-04-23T13:17:49.816Z,17.40
2018-04-23T13:20:17.380Z,17.40
2018-04-23T13:22:44.926Z,17.70
2018-04-23T13:25:12.472Z,18.10
2018-04-23T13:27:40.010Z,18.40
2018-04-23T13:30:08.418Z,18.60
2018-04-23T13:32:35.938Z,18.50
2018-04-23T13:35:03.467Z,18.50
2018-04-23T13:37:31.044Z,18.30
2018-04-23T13:39:58.618Z,18.40
2018-04-23T13:42:26.194Z,18.40
2018-04-23T13:44:53.681Z,18.80
2018-04-23T13:47:21.240Z,19.50
2018-04-23T13:49:48.821Z,19.60
2018-04-23T13:52:16.346Z,19.80
2018-04-23T13:54:43.886Z,20.30
2018-04-23T13:57:12.188Z,21.00
2018-04-23T13:59:39.714Z,20.90
2018-04-23T14:02:07.232Z,20.90
2018-04-23T14:04:34.767Z,20.20
2018-04-23T14:07:02.368Z,19.60
2018-04-23T14:09:29.905Z,19.30
2018-04-23T14:11:57.443Z,19.00
2018-04-23T14:14:24.977Z,18.70
2018-04-23T14:16:53.253Z,19.10
2018-04-23T14:19:21.589Z,18.60
2018-04-23T14:21:49.128Z,18.60
2018-04-23T14:24:16.691Z,18.30
2018-04-23T14:26:44.293Z,18.20
2018-04-23T14:29:12.586Z,17.70
2018-04-23T14:31:40.422Z,17.60
2018-04-23T14:34:07.958Z,18.10
2018-04-23T14:36:35.523Z,18.00
2018-04-23T14:39:03.086Z,17.70
2018-04-23T14:41:30.622Z,17.30
2018-04-23T14:43:58.931Z,16.90
2018-04-23T14:46:26.466Z,16.90
2018-04-23T14:48:53.994Z,16.80
2018-04-23T14:51:21.508Z,16.80
2018-04-23T14:53:49.023Z,16.90
2018-04-23T14:56:16.533Z,17.10
2018-04-23T14:58:44.108Z,18.10
2018-04-23T15:01:12.402Z,19.10
2018-04-23T15:03:39.937Z,19.10
2018-04-23T15:06:08.237Z,17.90
2018-04-23T15:08:35.765Z,17.90
2018-04-23T15:11:04.056Z,17.40
2018-04-23T15:13:32.356Z,17.40
2018-04-23T15:15:59.984Z,17.30
2018-04-23T15:18:28.287Z,17.70
2018-04-23T15:20:55.834Z,17.70
2018-04-23T15:23:23.372Z,17.60
2018-04-23T15:25:51.669Z,17.40
2018-04-23T15:28:19.230Z,17.40
2018-04-23T15:30:46.777Z,17.60
2018-04-23T15:33:14.317Z,17.50
2018-04-23T15:35:41.987Z,17.50
2018-04-23T15:38:09.521Z,18.10
2018-04-23T15:40:37.818Z,18.80
2018-04-23T15:43:05.463Z,18.80
2018-04-23T15:45:32.973Z,18.70
2018-04-23T15:48:00.501Z,18.30
2018-04-23T15:50:28.077Z,18.60
2018-04-23T15:52:56.386Z,18.40
2018-04-23T15:55:23.913Z,18.30
2018-04-23T15:57:51.441Z,17.90
2018-04-23T16:00:18.973Z,17.60
2018-04-23T16:02:46.497Z,17.50
2018-04-23T16:05:14.031Z,17.40
2018-04-23T16:07:42.322Z,17.40
2018-04-23T16:10:09.876Z,17.40
2018-04-23T16:12:38.190Z,17.80
2018-04-23T16:15:05.754Z,17.80
2018-04-23T16:17:33.281Z,17.80
2018-04-23T16:20:00.802Z,17.50
2018-04-23T16:22:28.428Z,17.30
2018-04-23T16:24:55.949Z,17.10
2018-04-23T16:27:23.485Z,16.80
2018-04-23T16:29:51.026Z,16.60
2018-04-23T16:32:18.562Z,16.40
2018-04-23T16:34:46.095Z,16.20
2018-04-23T16:37:13.613Z,16.20
2018-04-23T16:39:41.152Z,16.10
2018-04-23T16:42:08.662Z,16.00
2018-04-23T16:44:39.417Z,16.00
2018-04-23T16:47:04.502Z,16.00
2018-04-23T16:49:32.030Z,15.90
2018-04-23T16:51:59.590Z,16.10
2018-04-23T16:54:27.898Z,16.30
2018-04-23T16:56:55.436Z,16.30
2018-04-23T16:59:23.766Z,16.30
2018-04-23T17:01:51.461Z,16.30
2018-04-23T17:04:18.997Z,16.10
2018-04-23T17:06:46.522Z,15.90
2018-04-23T17:09:14.096Z,15.70
2018-04-23T17:11:41.648Z,15.50
2018-04-23T17:14:09.177Z,15.30
2018-04-23T17:16:37.564Z,15.20
2018-04-23T17:19:05.087Z,15.20
2018-04-23T17:21:32.666Z,15.20
2018-04-23T17:24:00.217Z,15.20
2018-04-23T17:26:28.557Z,15.00
2018-04-23T17:28:56.103Z,15.00
2018-04-23T17:31:23.654Z,15.00
2018-04-23T17:33:51.201Z,15.00
2018-04-23T17:36:18.792Z,15.00
2018-04-23T17:38:46.302Z,15.10
2018-04-23T17:41:13.873Z,15.10
2018-04-23T17:43:41.401Z,15.00
2018-04-23T17:46:08.981Z,15.10
2018-04-23T17:48:36.573Z,15.00
2018-04-23T17:51:04.109Z,14.80
2018-04-23T17:53:31.654Z,14.70
2018-04-23T17:55:59.209Z,14.70
2018-04-23T17:58:27.597Z,14.50
2018-04-23T18:00:55.212Z,14.50
2018-04-23T18:03:22.732Z,14.30
2018-04-23T18:05:50.314Z,14.30
2018-04-23T18:08:17.874Z,14.20
2018-04-23T18:10:45.402Z,14.20
2018-04-23T18:13:12.969Z,14.20
2018-04-23T18:15:40.530Z,14.10
2018-04-23T18:18:08.849Z,13.90
2018-04-23T18:20:36.403Z,13.80
2018-04-23T18:23:03.964Z,13.80
2018-04-23T18:25:31.609Z,13.70
2018-04-23T18:27:59.168Z,13.70
2018-04-23T18:30:28.422Z,13.60
2018-04-23T18:32:56.986Z,13.60
2018-04-23T18:35:25.340Z,13.40
2018-04-23T18:37:52.912Z,13.40
2018-04-23T18:40:20.569Z,13.40
2018-04-23T18:42:48.148Z,13.30
2018-04-23T18:45:15.790Z,13.20
2018-04-23T18:47:43.662Z,13.20
2018-04-23T18:50:11.240Z,13.10
2018-04-23T18:52:39.656Z,13.00
2018-04-23T18:55:07.274Z,13.00
2018-04-23T18:57:35.180Z,12.90
2018-04-23T19:00:02.903Z,12.90
2018-04-23T19:02:31.256Z,12.70
2018-04-23T19:05:00.421Z,12.60
2018-04-23T19:07:28.003Z,12.60
2018-04-23T19:09:55.783Z,12.60
2018-04-23T19:12:23.355Z,12.60
2018-04-23T19:14:51.013Z,12.60
2018-04-23T19:17:21.214Z,12.50
2018-04-23T19:19:48.810Z,12.50
2018-04-23T19:22:16.397Z,12.50
2018-04-23T19:24:43.987Z,12.50
2018-04-23T19:27:11.565Z,12.60
2018-04-23T19:29:39.999Z,12.50
2018-04-23T19:32:07.592Z,12.50
2018-04-23T19:34:36.361Z,12.50
2018-04-23T19:37:04.437Z,12.50
2018-04-23T19:39:32.260Z,12.50
2018-04-23T19:41:59.844Z,12.50
2018-04-23T19:44:28.221Z,12.50
2018-04-23T19:46:55.790Z,12.50
2018-04-23T19:49:23.363Z,12.50
2018-04-23T19:51:51.399Z,12.50
2018-04-23T19:54:18.971Z,12.60
2018-04-23T19:56:47.043Z,12.50
2018-04-23T19:59:14.624Z,12.60
2018-04-23T20:01:42.184Z,12.60
2018-04-23T20:04:10.347Z,12.60
2018-04-23T20:06:37.992Z,12.60
2018-04-23T20:09:08.136Z,12.50
2018-04-23T20:11:35.712Z,12.50
2018-04-23T20:14:03.881Z,12.60
2018-04-23T20:16:31.450Z,12.60
2018-04-23T20:19:00.244Z,12.60
2018-04-23T20:21:27.852Z,12.60
2018-04-23T20:23:55.420Z,12.60
2018-04-23T20:26:23.010Z,12.60
2018-04-23T20:28:51.176Z,12.50
2018-04-23T20:31:18.784Z,12.50
2018-04-23T20:33:46.347Z,12.50
2018-04-23T20:36:13.907Z,12.50
2018-04-23T20:38:41.497Z,12.50
2018-04-23T20:41:09.051Z,12.50
2018-04-23T20:43:36.615Z,12.40
2018-04-23T20:46:04.187Z,12.40
2018-04-23T20:48:31.752Z,12.30
2018-04-23T20:50:59.326Z,12.30
2018-04-23T20:53:27.029Z,12.30
2018-04-23T20:55:54.675Z,12.30
2018-04-23T20:58:22.158Z,12.30
2018-04-23T21:00:49.689Z,12.30
2018-04-23T21:03:17.224Z,12.30
2018-04-23T21:05:44.755Z,12.30
2018-04-23T21:08:12.284Z,12.20
2018-04-23T21:10:39.821Z,12.20
2018-04-23T21:13:08.231Z,12.10
2018-04-23T21:15:35.891Z,12.10
2018-04-23T21:18:03.436Z,12.00
2018-04-23T21:20:31.004Z,12.00
2018-04-23T21:22:58.539Z,12.00
2018-04-23T21:25:26.832Z,12.00
2018-04-23T21:27:54.396Z,11.90
2018-04-23T21:30:21.935Z,11.90
2018-04-23T21:32:50.270Z,11.80
2018-04-23T21:35:17.802Z,11.80
2018-04-23T21:37:45.403Z,11.80
2018-04-23T21:40:12.881Z,11.80
2018-04-23T21:42:41.167Z,11.70
2018-04-23T21:45:08.720Z,11.70
2018-04-23T21:47:37.009Z,11.70
2018-04-23T21:50:04.584Z,11.60
2018-04-23T21:52:32.123Z,11.60
2018-04-23T21:54:59.784Z,11.60
2018-04-23T21:57:28.081Z,11.50
2018-04-23T21:59:55.644Z,11.50
2018-04-23T22:02:23.162Z,11.40
2018-04-23T22:04:51.455Z,11.30
2018-04-23T22:07:18.993Z,11.30
2018-04-23T22:09:46.538Z,11.30
2018-04-23T22:12:14.062Z,11.30
2018-04-23T22:14:41.599Z,11.30
2018-04-23T22:17:09.125Z,11.30
2018-04-23T22:19:37.410Z,11.20
2018-04-23T22:22:04.946Z,11.20
2018-04-23T22:24:33.992Z,11.10
2018-04-23T22:27:01.522Z,11.10
2018-04-23T22:29:29.073Z,11.10
2018-04-23T22:31:57.372Z,11.00
2018-04-23T22:34:24.898Z,11.00
2018-04-23T22:36:52.446Z,11.00
2018-04-23T22:39:19.956Z,11.00
2018-04-23T22:41:47.464Z,11.00
2018-04-23T22:44:15.766Z,11.00
2018-04-23T22:46:43.271Z,11.00
2018-04-23T22:49:10.787Z,10.90
2018-04-23T22:51:39.091Z,10.80
2018-04-23T22:54:06.681Z,10.80
2018-04-23T22:56:34.217Z,10.80
2018-04-23T22:59:01.743Z,10.70
2018-04-23T23:01:29.291Z,10.70
2018-04-23T23:03:57.571Z,10.70
2018-04-23T23:06:25.845Z,10.60
2018-04-23T23:08:54.145Z,10.60
2018-04-23T23:11:21.672Z,10.60
2018-04-23T23:13:49.198Z,10.60
2018-04-23T23:16:16.722Z,10.60
2018-04-23T23:18:44.282Z,10.50
2018-04-23T23:21:11.802Z,10.50
2018-04-23T23:23:39.346Z,10.50
2018-04-23T23:26:06.898Z,10.50
2018-04-23T23:28:34.416Z,10.40
2018-04-23T23:31:01.929Z,10.40
2018-04-23T23:33:29.467Z,10.30
2018-04-23T23:35:56.995Z,10.40
2018-04-23T23:38:24.536Z,10.40
2018-04-23T23:40:52.054Z,10.30
2018-04-23T23:43:19.563Z,10.30
2018-04-23T23:45:47.099Z,10.30
2018-04-23T23:48:14.617Z,10.30
2018-04-23T23:50:42.149Z,10.30
2018-04-23T23:53:09.670Z,10.20
2018-04-23T23:55:37.195Z,10.20
2018-04-23T23:58:04.728Z,10.10
